sensor_id;sensor_type;location;lat;lon;timestamp;pressure;altitude;pressure_sealevel;temperature;humidity
47522;BME280;32291;52.010;4.446;2023-10-09T00:00:25;78386.03;;;-144.67;100.00
47522;BME280;32291;52.010;4.446;2023-10-09T00:01:45;78386.03;;;-144.67;100.00
47522;BME280;32291;52.010;4.446;2023-10-09T00:02:47;78381.72;;;-144.67;100.00
47522;BME280;32291;52.010;4.446;2023-10-09T00:03:49;78381.72;;;-144.67;100.00
47522;BME280;32291;52.010;4.446;2023-10-09T00:04:54;78373.16;;;-144.67;100.00
47522;BME280;32291;52.010;4.446;2023-10-09T00:05:58;78364.59;;;-144.67;100.00
47522;BME280;32291;52.010;4.446;2023-10-09T00:07:00;78368.88;;;-144.67;100.00
47522;BME280;32291;52.010;4.446;2023-10-09T00:08:01;78356.03;;;-144.67;100.00
47522;BME280;32291;52.010;4.446;2023-10-09T00:09:05;78368.88;;;-144.67;100.00
47522;BME280;32291;52.010;4.446;2023-10-09T00:10:25;78366.75;;;-144.67;100.00
47522;BME280;32291;52.010;4.446;2023-10-09T00:11:36;78356.03;;;-144.67;100.00
47522;BME280;32291;52.010;4.446;2023-10-09T00:12:43;78356.03;;;-144.67;100.00
47522;BME280;32291;52.010;4.446;2023-10-09T00:13:47;78364.59;;;-144.67;100.00
47522;BME280;32291;52.010;4.446;2023-10-09T00:14:54;78366.75;;;-144.67;100.00
47522;BME280;32291;52.010;4.446;2023-10-09T00:16:04;78364.59;;;-144.67;100.00
47522;BME280;32291;52.010;4.446;2023-10-09T00:17:11;78366.75;;;-144.67;100.00
47522;BME280;32291;52.010;4.446;2023-10-09T00:18:12;78368.88;;;-144.67;100.00
47522;BME280;32291;52.010;4.446;2023-10-09T00:19:14;78358.19;;;-144.67;100.00
47522;BME280;32291;52.010;4.446;2023-10-09T00:20:36;78364.59;;;-144.67;100.00
47522;BME280;32291;52.010;4.446;2023-10-09T00:21:48;78375.31;;;-144.67;100.00
47522;BME280;32291;52.010;4.446;2023-10-09T00:22:50;78368.88;;;-144.67;100.00
47522;BME280;32291;52.010;4.446;2023-10-09T00:23:52;78368.88;;;-144.67;100.00
47522;BME280;32291;52.010;4.446;2023-10-09T00:24:58;78368.88;;;-144.67;100.00
47522;BME280;32291;52.010;4.446;2023-10-09T00:26:11;78362.47;;;-144.67;100.00
47522;BME280;32291;52.010;4.446;2023-10-09T00:27:20;78356.03;;;-144.67;100.00
47522;BME280;32291;52.010;4.446;2023-10-09T00:28:25;78360.31;;;-144.67;100.00
47522;BME280;32291;52.010;4.446;2023-10-09T00:29:27;78351.75;;;-144.67;100.00
47522;BME280;32291;52.010;4.446;2023-10-09T00:30:29;78349.63;;;-144.67;100.00
47522;BME280;32291;52.010;4.446;2023-10-09T00:31:31;78356.03;;;-144.67;100.00
47522;BME280;32291;52.010;4.446;2023-10-09T00:32:34;78353.91;;;-144.67;100.00
47522;BME280;32291;52.010;4.446;2023-10-09T00:33:38;78356.03;;;-144.67;100.00
47522;BME280;32291;52.010;4.446;2023-10-09T00:34:40;78362.47;;;-144.67;100.00
47522;BME280;32291;52.010;4.446;2023-10-09T00:35:41;78368.88;;;-144.67;100.00
47522;BME280;32291;52.010;4.446;2023-10-09T00:36:49;78364.59;;;-144.67;100.00
47522;BME280;32291;52.010;4.446;2023-10-09T00:37:53;78360.31;;;-144.67;100.00
47522;BME280;32291;52.010;4.446;2023-10-09T00:39:01;78362.47;;;-144.67;100.00
47522;BME280;32291;52.010;4.446;2023-10-09T00:40:13;78364.59;;;-144.67;100.00
47522;BME280;32291;52.010;4.446;2023-10-09T00:41:21;78356.03;;;-144.67;100.00
47522;BME280;32291;52.010;4.446;2023-10-09T00:42:26;78364.59;;;-144.67;100.00
47522;BME280;32291;52.010;4.446;2023-10-09T00:43:38;78358.19;;;-144.67;100.00
47522;BME280;32291;52.010;4.446;2023-10-09T00:44:40;78349.63;;;-144.67;100.00
47522;BME280;32291;52.010;4.446;2023-10-09T00:45:47;78356.03;;;-144.67;100.00
47522;BME280;32291;52.010;4.446;2023-10-09T00:46:48;78345.34;;;-144.67;100.00
47522;BME280;32291;52.010;4.446;2023-10-09T00:47:51;78356.03;;;-144.67;100.00
47522;BME280;32291;52.010;4.446;2023-10-09T00:48:59;78356.03;;;-144.67;100.00
47522;BME280;32291;52.010;4.446;2023-10-09T00:50:10;78356.03;;;-144.67;100.00
47522;BME280;32291;52.010;4.446;2023-10-09T00:51:18;78360.31;;;-144.67;100.00
47522;BME280;32291;52.010;4.446;2023-10-09T00:52:23;78353.91;;;-144.67;100.00
47522;BME280;32291;52.010;4.446;2023-10-09T00:53:32;78351.75;;;-144.67;100.00
47522;BME280;32291;52.010;4.446;2023-10-09T00:54:34;78356.03;;;-144.67;100.00
47522;BME280;32291;52.010;4.446;2023-10-09T00:55:42;78347.47;;;-144.67;100.00
47522;BME280;32291;52.010;4.446;2023-10-09T00:56:44;78351.75;;;-144.67;100.00
47522;BME280;32291;52.010;4.446;2023-10-09T00:57:55;78351.75;;;-144.67;100.00
47522;BME280;32291;52.010;4.446;2023-10-09T00:59:15;78345.34;;;-144.67;100.00
47522;BME280;32291;52.010;4.446;2023-10-09T01:00:17;78353.91;;;-144.67;100.00
47522;BME280;32291;52.010;4.446;2023-10-09T01:01:33;78349.63;;;-144.67;100.00
47522;BME280;32291;52.010;4.446;2023-10-09T01:03:02;78353.91;;;-144.67;100.00
47522;BME280;32291;52.010;4.446;2023-10-09T01:04:19;78353.91;;;-144.67;100.00
47522;BME280;32291;52.010;4.446;2023-10-09T01:05:21;78349.63;;;-144.67;100.00
47522;BME280;32291;52.010;4.446;2023-10-09T01:06:28;78353.91;;;-144.67;100.00
47522;BME280;32291;52.010;4.446;2023-10-09T01:07:34;78349.63;;;-144.67;100.00
47522;BME280;32291;52.010;4.446;2023-10-09T01:08:39;78351.75;;;-144.67;100.00
47522;BME280;32291;52.010;4.446;2023-10-09T01:09:42;78356.03;;;-144.67;100.00
47522;BME280;32291;52.010;4.446;2023-10-09T01:10:46;78330.34;;;-144.67;100.00
47522;BME280;32291;52.010;4.446;2023-10-09T01:11:57;78334.63;;;-144.67;100.00
47522;BME280;32291;52.010;4.446;2023-10-09T01:13:01;78347.47;;;-144.67;100.00
47522;BME280;32291;52.010;4.446;2023-10-09T01:14:04;78338.91;;;-144.67;100.00
47522;BME280;32291;52.010;4.446;2023-10-09T01:15:09;78330.34;;;-144.67;100.00
47522;BME280;32291;52.010;4.446;2023-10-09T01:16:23;78328.22;;;-144.67;100.00
47522;BME280;32291;52.010;4.446;2023-10-09T01:17:25;78332.50;;;-144.67;100.00
47522;BME280;32291;52.010;4.446;2023-10-09T01:18:36;78330.34;;;-144.67;100.00
47522;BME280;32291;52.010;4.446;2023-10-09T01:19:42;78330.34;;;-144.67;100.00
47522;BME280;32291;52.010;4.446;2023-10-09T01:20:44;78334.63;;;-144.67;100.00
47522;BME280;32291;52.010;4.446;2023-10-09T01:21:47;78330.34;;;-144.67;100.00
47522;BME280;32291;52.010;4.446;2023-10-09T01:22:49;78330.34;;;-144.67;100.00
47522;BME280;32291;52.010;4.446;2023-10-09T01:23:53;78321.78;;;-144.67;100.00
47522;BME280;32291;52.010;4.446;2023-10-09T01:25:10;78326.06;;;-144.67;100.00
47522;BME280;32291;52.010;4.446;2023-10-09T01:26:12;78319.66;;;-144.67;100.00
47522;BME280;32291;52.010;4.446;2023-10-09T01:27:13;78317.50;;;-144.67;100.00
47522;BME280;32291;52.010;4.446;2023-10-09T01:28:18;78313.22;;;-144.67;100.00
47522;BME280;32291;52.010;4.446;2023-10-09T01:29:21;78313.22;;;-144.67;100.00
47522;BME280;32291;52.010;4.446;2023-10-09T01:30:23;78308.94;;;-144.67;100.00
47522;BME280;32291;52.010;4.446;2023-10-09T01:31:25;78304.66;;;-144.67;100.00
47522;BME280;32291;52.010;4.446;2023-10-09T01:32:35;78300.38;;;-144.67;100.00
47522;BME280;32291;52.010;4.446;2023-10-09T01:33:36;78302.53;;;-144.67;100.00
47522;BME280;32291;52.010;4.446;2023-10-09T01:34:38;78308.94;;;-144.67;100.00
47522;BME280;32291;52.010;4.446;2023-10-09T01:35:45;78296.09;;;-144.67;100.00
47522;BME280;32291;52.010;4.446;2023-10-09T01:36:52;78291.81;;;-144.67;100.00
47522;BME280;32291;52.010;4.446;2023-10-09T01:37:57;78291.81;;;-144.67;100.00
47522;BME280;32291;52.010;4.446;2023-10-09T01:39:00;78287.53;;;-144.67;100.00
47522;BME280;32291;52.010;4.446;2023-10-09T01:40:25;78283.25;;;-144.67;100.00
47522;BME280;32291;52.010;4.446;2023-10-09T01:41:36;78291.81;;;-144.67;100.00
47522;BME280;32291;52.010;4.446;2023-10-09T01:42:48;78283.25;;;-144.67;100.00
47522;BME280;32291;52.010;4.446;2023-10-09T01:43:49;78287.53;;;-144.67;100.00
47522;BME280;32291;52.010;4.446;2023-10-09T01:44:53;78291.81;;;-144.67;100.00
47522;BME280;32291;52.010;4.446;2023-10-09T01:45:54;78289.66;;;-144.67;100.00
47522;BME280;32291;52.010;4.446;2023-10-09T01:46:56;78287.53;;;-144.67;100.00
47522;BME280;32291;52.010;4.446;2023-10-09T01:47:59;78291.81;;;-144.67;100.00
47522;BME280;32291;52.010;4.446;2023-10-09T01:49:09;78291.81;;;-144.67;100.00
47522;BME280;32291;52.010;4.446;2023-10-09T01:50:18;78278.97;;;-144.67;100.00
47522;BME280;32291;52.010;4.446;2023-10-09T01:51:21;78289.66;;;-144.67;100.00
47522;BME280;32291;52.010;4.446;2023-10-09T01:52:23;78296.09;;;-144.67;100.00
47522;BME280;32291;52.010;4.446;2023-10-09T01:53:25;78300.38;;;-144.67;100.00
47522;BME280;32291;52.010;4.446;2023-10-09T01:54:31;78287.53;;;-144.67;100.00
47522;BME280;32291;52.010;4.446;2023-10-09T01:55:39;78283.25;;;-144.67;100.00
47522;BME280;32291;52.010;4.446;2023-10-09T01:56:42;78289.66;;;-144.67;100.00
47522;BME280;32291;52.010;4.446;2023-10-09T01:57:47;78298.22;;;-144.67;100.00
47522;BME280;32291;52.010;4.446;2023-10-09T01:58:49;78300.38;;;-144.67;100.00
47522;BME280;32291;52.010;4.446;2023-10-09T01:59:52;78302.53;;;-144.67;100.00
47522;BME280;32291;52.010;4.446;2023-10-09T02:00:56;78308.94;;;-144.67;100.00
47522;BME280;32291;52.010;4.446;2023-10-09T02:01:58;78313.22;;;-144.67;100.00
47522;BME280;32291;52.010;4.446;2023-10-09T02:03:07;78317.50;;;-144.67;100.00
47522;BME280;32291;52.010;4.446;2023-10-09T02:04:14;78317.50;;;-144.67;100.00
47522;BME280;32291;52.010;4.446;2023-10-09T02:05:17;78317.50;;;-144.67;100.00
47522;BME280;32291;52.010;4.446;2023-10-09T02:06:18;78323.94;;;-144.67;100.00
47522;BME280;32291;52.010;4.446;2023-10-09T02:07:27;78326.06;;;-144.67;100.00
47522;BME280;32291;52.010;4.446;2023-10-09T02:08:30;78332.50;;;-144.67;100.00
47522;BME280;32291;52.010;4.446;2023-10-09T02:09:36;78330.34;;;-144.67;100.00
47522;BME280;32291;52.010;4.446;2023-10-09T02:10:45;78330.34;;;-144.67;100.00
47522;BME280;32291;52.010;4.446;2023-10-09T02:11:49;78326.06;;;-144.67;100.00
47522;BME280;32291;52.010;4.446;2023-10-09T02:12:53;78330.34;;;-144.67;100.00
47522;BME280;32291;52.010;4.446;2023-10-09T02:14:00;78317.50;;;-144.67;100.00
47522;BME280;32291;52.010;4.446;2023-10-09T02:15:05;78308.94;;;-144.67;100.00
47522;BME280;32291;52.010;4.446;2023-10-09T02:16:16;78315.38;;;-144.67;100.00
47522;BME280;32291;52.010;4.446;2023-10-09T02:17:29;78313.22;;;-144.67;100.00
47522;BME280;32291;52.010;4.446;2023-10-09T02:18:31;78300.38;;;-144.67;100.00
47522;BME280;32291;52.010;4.446;2023-10-09T02:19:35;78293.94;;;-144.67;100.00
47522;BME280;32291;52.010;4.446;2023-10-09T02:20:37;78283.25;;;-144.67;100.00
47522;BME280;32291;52.010;4.446;2023-10-09T02:21:39;78283.25;;;-144.67;100.00
47522;BME280;32291;52.010;4.446;2023-10-09T02:22:43;78272.53;;;-144.67;100.00
47522;BME280;32291;52.010;4.446;2023-10-09T02:23:45;78270.41;;;-144.67;100.00
47522;BME280;32291;52.010;4.446;2023-10-09T02:24:50;78278.97;;;-144.67;100.00
47522;BME280;32291;52.010;4.446;2023-10-09T02:25:58;78270.41;;;-144.67;100.00
47522;BME280;32291;52.010;4.446;2023-10-09T02:27:08;78278.97;;;-144.67;100.00
47522;BME280;32291;52.010;4.446;2023-10-09T02:28:10;78274.69;;;-144.67;100.00
47522;BME280;32291;52.010;4.446;2023-10-09T02:29:18;78263.97;;;-144.67;100.00
47522;BME280;32291;52.010;4.446;2023-10-09T02:30:25;78263.97;;;-144.67;100.00
47522;BME280;32291;52.010;4.446;2023-10-09T02:31:31;78259.69;;;-144.67;100.00
47522;BME280;32291;52.010;4.446;2023-10-09T02:32:43;78270.41;;;-144.67;100.00
47522;BME280;32291;52.010;4.446;2023-10-09T02:33:44;78257.56;;;-144.67;100.00
47522;BME280;32291;52.010;4.446;2023-10-09T02:34:46;78257.56;;;-144.67;100.00
47522;BME280;32291;52.010;4.446;2023-10-09T02:35:47;78253.28;;;-144.67;100.00
47522;BME280;32291;52.010;4.446;2023-10-09T02:36:52;78261.84;;;-144.67;100.00
47522;BME280;32291;52.010;4.446;2023-10-09T02:38:06;78270.41;;;-144.67;100.00
47522;BME280;32291;52.010;4.446;2023-10-09T02:39:11;78270.41;;;-144.67;100.00
47522;BME280;32291;52.010;4.446;2023-10-09T02:40:28;78266.13;;;-144.67;100.00
47522;BME280;32291;52.010;4.446;2023-10-09T02:41:35;78253.28;;;-144.67;100.00
47522;BME280;32291;52.010;4.446;2023-10-09T02:42:46;78249.00;;;-144.67;100.00
47522;BME280;32291;52.010;4.446;2023-10-09T02:43:48;78253.28;;;-144.67;100.00
47522;BME280;32291;52.010;4.446;2023-10-09T02:44:56;78240.44;;;-144.67;100.00
47522;BME280;32291;52.010;4.446;2023-10-09T02:46:01;78249.00;;;-144.67;100.00
47522;BME280;32291;52.010;4.446;2023-10-09T02:47:16;78244.72;;;-144.67;100.00
47522;BME280;32291;52.010;4.446;2023-10-09T02:48:30;78244.72;;;-144.67;100.00
47522;BME280;32291;52.010;4.446;2023-10-09T02:49:35;78242.56;;;-144.67;100.00
47522;BME280;32291;52.010;4.446;2023-10-09T02:50:39;78242.56;;;-144.67;100.00
47522;BME280;32291;52.010;4.446;2023-10-09T02:51:45;78240.44;;;-144.67;100.00
47522;BME280;32291;52.010;4.446;2023-10-09T02:52:54;78236.16;;;-144.67;100.00
47522;BME280;32291;52.010;4.446;2023-10-09T02:54:03;78229.72;;;-144.67;100.00
47522;BME280;32291;52.010;4.446;2023-10-09T02:55:23;78229.72;;;-144.67;100.00
47522;BME280;32291;52.010;4.446;2023-10-09T02:56:27;78221.16;;;-144.67;100.00
47522;BME280;32291;52.010;4.446;2023-10-09T02:57:38;78221.16;;;-144.67;100.00
47522;BME280;32291;52.010;4.446;2023-10-09T02:58:43;78223.31;;;-144.67;100.00
47522;BME280;32291;52.010;4.446;2023-10-09T02:59:44;78225.44;;;-144.67;100.00
47522;BME280;32291;52.010;4.446;2023-10-09T03:00:46;78219.03;;;-144.67;100.00
47522;BME280;32291;52.010;4.446;2023-10-09T03:01:50;78221.16;;;-144.67;100.00
47522;BME280;32291;52.010;4.446;2023-10-09T03:02:55;78216.88;;;-144.67;100.00
47522;BME280;32291;52.010;4.446;2023-10-09T03:03:59;78219.03;;;-144.67;100.00
47522;BME280;32291;52.010;4.446;2023-10-09T03:05:04;78227.59;;;-144.67;100.00
47522;BME280;32291;52.010;4.446;2023-10-09T03:06:06;78227.59;;;-144.67;100.00
47522;BME280;32291;52.010;4.446;2023-10-09T03:07:12;78229.72;;;-144.67;100.00
47522;BME280;32291;52.010;4.446;2023-10-09T03:08:14;78223.31;;;-144.67;100.00
47522;BME280;32291;52.010;4.446;2023-10-09T03:09:19;78206.19;;;-144.67;100.00
47522;BME280;32291;52.010;4.446;2023-10-09T03:10:28;78206.19;;;-144.67;100.00
47522;BME280;32291;52.010;4.446;2023-10-09T03:11:29;78193.31;;;-144.67;100.00
47522;BME280;32291;52.010;4.446;2023-10-09T03:12:33;78201.91;;;-144.67;100.00
47522;BME280;32291;52.010;4.446;2023-10-09T03:13:35;78193.31;;;-144.67;100.00
47522;BME280;32291;52.010;4.446;2023-10-09T03:14:39;78191.19;;;-144.67;100.00
47522;BME280;32291;52.010;4.446;2023-10-09T03:15:42;78189.03;;;-144.67;100.00
47522;BME280;32291;52.010;4.446;2023-10-09T03:16:44;78189.03;;;-144.67;100.00
47522;BME280;32291;52.010;4.446;2023-10-09T03:17:46;78182.63;;;-144.67;100.00
47522;BME280;32291;52.010;4.446;2023-10-09T03:18:53;78193.31;;;-144.67;100.00
47522;BME280;32291;52.010;4.446;2023-10-09T03:19:54;78191.19;;;-144.67;100.00
47522;BME280;32291;52.010;4.446;2023-10-09T03:20:56;78189.03;;;-144.67;100.00
47522;BME280;32291;52.010;4.446;2023-10-09T03:21:57;78184.75;;;-144.67;100.00
47522;BME280;32291;52.010;4.446;2023-10-09T03:22:59;78189.03;;;-144.67;100.00
47522;BME280;32291;52.010;4.446;2023-10-09T03:24:02;78191.19;;;-144.67;100.00
47522;BME280;32291;52.010;4.446;2023-10-09T03:25:07;78184.75;;;-144.67;100.00
47522;BME280;32291;52.010;4.446;2023-10-09T03:26:21;78193.31;;;-144.67;100.00
47522;BME280;32291;52.010;4.446;2023-10-09T03:27:23;78197.59;;;-144.67;100.00
47522;BME280;32291;52.010;4.446;2023-10-09T03:28:25;78193.31;;;-144.67;100.00
47522;BME280;32291;52.010;4.446;2023-10-09T03:29:27;78191.19;;;-144.67;100.00
47522;BME280;32291;52.010;4.446;2023-10-09T03:30:28;78197.59;;;-144.67;100.00
47522;BME280;32291;52.010;4.446;2023-10-09T03:31:33;78208.31;;;-144.67;100.00
47522;BME280;32291;52.010;4.446;2023-10-09T03:32:35;78210.47;;;-144.67;100.00
47522;BME280;32291;52.010;4.446;2023-10-09T03:33:36;78223.31;;;-144.67;100.00
47522;BME280;32291;52.010;4.446;2023-10-09T03:34:38;78238.28;;;-144.67;100.00
47522;BME280;32291;52.010;4.446;2023-10-09T03:35:40;78227.59;;;-144.67;100.00
47522;BME280;32291;52.010;4.446;2023-10-09T03:36:41;78234.00;;;-144.67;100.00
47522;BME280;32291;52.010;4.446;2023-10-09T03:37:44;78231.88;;;-144.67;100.00
47522;BME280;32291;52.010;4.446;2023-10-09T03:38:46;78231.88;;;-144.67;100.00
47522;BME280;32291;52.010;4.446;2023-10-09T03:39:48;78242.56;;;-144.67;100.00
47522;BME280;32291;52.010;4.446;2023-10-09T03:40:52;78242.56;;;-144.67;100.00
47522;BME280;32291;52.010;4.446;2023-10-09T03:41:55;78244.72;;;-144.67;100.00
47522;BME280;32291;52.010;4.446;2023-10-09T03:42:59;78251.13;;;-144.67;100.00
47522;BME280;32291;52.010;4.446;2023-10-09T03:44:02;78251.13;;;-144.67;100.00
47522;BME280;32291;52.010;4.446;2023-10-09T03:45:05;78249.00;;;-144.67;100.00
47522;BME280;32291;52.010;4.446;2023-10-09T03:46:22;78249.00;;;-144.67;100.00
47522;BME280;32291;52.010;4.446;2023-10-09T03:47:33;78251.13;;;-144.67;100.00
47522;BME280;32291;52.010;4.446;2023-10-09T03:48:35;78253.28;;;-144.67;100.00
47522;BME280;32291;52.010;4.446;2023-10-09T03:49:37;78249.00;;;-144.67;100.00
47522;BME280;32291;52.010;4.446;2023-10-09T03:50:40;78236.16;;;-144.67;100.00
47522;BME280;32291;52.010;4.446;2023-10-09T03:51:44;78227.59;;;-144.67;100.00
47522;BME280;32291;52.010;4.446;2023-10-09T03:52:46;78219.03;;;-144.67;100.00
47522;BME280;32291;52.010;4.446;2023-10-09T03:53:49;78206.19;;;-144.67;100.00
47522;BME280;32291;52.010;4.446;2023-10-09T03:54:52;78189.03;;;-144.67;100.00
47522;BME280;32291;52.010;4.446;2023-10-09T03:55:53;78176.19;;;-144.67;100.00
47522;BME280;32291;52.010;4.446;2023-10-09T03:56:55;78174.06;;;-144.67;100.00
47522;BME280;32291;52.010;4.446;2023-10-09T03:58:00;78171.91;;;-144.67;100.00
47522;BME280;32291;52.010;4.446;2023-10-09T03:59:02;78171.91;;;-144.67;100.00
47522;BME280;32291;52.010;4.446;2023-10-09T04:00:06;78184.75;;;-144.67;100.00
47522;BME280;32291;52.010;4.446;2023-10-09T04:01:17;78189.03;;;-144.67;100.00
47522;BME280;32291;52.010;4.446;2023-10-09T04:02:29;78184.75;;;-144.67;100.00
47522;BME280;32291;52.010;4.446;2023-10-09T04:03:32;78180.47;;;-144.67;100.00
47522;BME280;32291;52.010;4.446;2023-10-09T04:04:36;78184.75;;;-144.67;100.00
47522;BME280;32291;52.010;4.446;2023-10-09T04:05:38;78180.47;;;-144.67;100.00
47522;BME280;32291;52.010;4.446;2023-10-09T04:06:43;78163.34;;;-144.67;100.00
47522;BME280;32291;52.010;4.446;2023-10-09T04:07:44;78171.91;;;-144.67;100.00
47522;BME280;32291;52.010;4.446;2023-10-09T04:08:46;78171.91;;;-144.67;100.00
47522;BME280;32291;52.010;4.446;2023-10-09T04:09:52;78161.22;;;-144.67;100.00
47522;BME280;32291;52.010;4.446;2023-10-09T04:11:15;78156.94;;;-144.67;100.00
47522;BME280;32291;52.010;4.446;2023-10-09T04:12:23;78150.50;;;-144.67;100.00
47522;BME280;32291;52.010;4.446;2023-10-09T04:13:27;78146.22;;;-144.67;100.00
47522;BME280;32291;52.010;4.446;2023-10-09T04:14:38;78131.25;;;-144.67;100.00
47522;BME280;32291;52.010;4.446;2023-10-09T04:15:50;78135.53;;;-144.67;100.00
47522;BME280;32291;52.010;4.446;2023-10-09T04:16:55;78124.81;;;-144.67;100.00
47522;BME280;32291;52.010;4.446;2023-10-09T04:18:07;78124.81;;;-144.67;100.00
47522;BME280;32291;52.010;4.446;2023-10-09T04:19:16;78116.25;;;-144.67;100.00
47522;BME280;32291;52.010;4.446;2023-10-09T04:20:23;78111.97;;;-144.67;100.00
47522;BME280;32291;52.010;4.446;2023-10-09T04:21:24;78111.97;;;-144.67;100.00
47522;BME280;32291;52.010;4.446;2023-10-09T04:22:40;78114.13;;;-144.67;100.00
47522;BME280;32291;52.010;4.446;2023-10-09T04:23:51;78097.00;;;-144.67;100.00
47522;BME280;32291;52.010;4.446;2023-10-09T04:25:11;78097.00;;;-144.67;100.00
47522;BME280;32291;52.010;4.446;2023-10-09T04:26:15;78099.13;;;-144.67;100.00
47522;BME280;32291;52.010;4.446;2023-10-09T04:27:17;78094.84;;;-144.67;100.00
47522;BME280;32291;52.010;4.446;2023-10-09T04:28:18;78088.44;;;-144.67;100.00
47522;BME280;32291;52.010;4.446;2023-10-09T04:29:20;78088.44;;;-144.67;100.00
47522;BME280;32291;52.010;4.446;2023-10-09T04:30:28;78094.84;;;-144.67;100.00
47522;BME280;32291;52.010;4.446;2023-10-09T04:31:30;78090.56;;;-144.67;100.00
47522;BME280;32291;52.010;4.446;2023-10-09T04:32:38;78097.00;;;-144.67;100.00
47522;BME280;32291;52.010;4.446;2023-10-09T04:33:41;78101.28;;;-144.67;100.00
47522;BME280;32291;52.010;4.446;2023-10-09T04:34:46;78101.28;;;-144.67;100.00
47522;BME280;32291;52.010;4.446;2023-10-09T04:35:51;78116.25;;;-144.67;100.00
47522;BME280;32291;52.010;4.446;2023-10-09T04:37:12;78126.97;;;-144.67;100.00
47522;BME280;32291;52.010;4.446;2023-10-09T04:38:16;78129.09;;;-144.67;100.00
47522;BME280;32291;52.010;4.446;2023-10-09T04:39:18;78126.97;;;-144.67;100.00
47522;BME280;32291;52.010;4.446;2023-10-09T04:40:32;78120.53;;;-144.67;100.00
47522;BME280;32291;52.010;4.446;2023-10-09T04:41:53;78118.41;;;-144.67;100.00
47522;BME280;32291;52.010;4.446;2023-10-09T04:42:55;78122.69;;;-144.67;100.00
47522;BME280;32291;52.010;4.446;2023-10-09T04:44:00;78124.81;;;-144.67;100.00
47522;BME280;32291;52.010;4.446;2023-10-09T04:45:20;78131.25;;;-144.67;100.00
47522;BME280;32291;52.010;4.446;2023-10-09T04:46:42;78133.38;;;-144.67;100.00
47522;BME280;32291;52.010;4.446;2023-10-09T04:47:59;78116.25;;;-144.67;100.00
47522;BME280;32291;52.010;4.446;2023-10-09T04:49:08;78114.13;;;-144.67;100.00
47522;BME280;32291;52.010;4.446;2023-10-09T04:50:27;78109.84;;;-144.67;100.00
47522;BME280;32291;52.010;4.446;2023-10-09T04:51:31;78111.97;;;-144.67;100.00
47522;BME280;32291;52.010;4.446;2023-10-09T04:52:38;78109.84;;;-144.67;100.00
47522;BME280;32291;52.010;4.446;2023-10-09T04:53:40;78107.69;;;-144.67;100.00
47522;BME280;32291;52.010;4.446;2023-10-09T04:54:51;78105.56;;;-144.67;100.00
47522;BME280;32291;52.010;4.446;2023-10-09T04:56:08;78107.69;;;-144.67;100.00
47522;BME280;32291;52.010;4.446;2023-10-09T04:57:16;78111.97;;;-144.67;100.00
47522;BME280;32291;52.010;4.446;2023-10-09T04:58:22;78124.81;;;-144.67;100.00
47522;BME280;32291;52.010;4.446;2023-10-09T04:59:33;78124.81;;;-144.67;100.00
47522;BME280;32291;52.010;4.446;2023-10-09T05:00:47;78129.09;;;-144.67;100.00
47522;BME280;32291;52.010;4.446;2023-10-09T05:01:48;78124.81;;;-144.67;100.00
47522;BME280;32291;52.010;4.446;2023-10-09T05:03:03;78120.53;;;-144.67;100.00
47522;BME280;32291;52.010;4.446;2023-10-09T05:04:26;78129.09;;;-144.67;100.00
47522;BME280;32291;52.010;4.446;2023-10-09T05:05:40;78133.38;;;-144.67;100.00
47522;BME280;32291;52.010;4.446;2023-10-09T05:06:42;78129.09;;;-144.67;100.00
47522;BME280;32291;52.010;4.446;2023-10-09T05:07:56;78124.81;;;-144.67;100.00
47522;BME280;32291;52.010;4.446;2023-10-09T05:08:58;78131.25;;;-144.67;100.00
47522;BME280;32291;52.010;4.446;2023-10-09T05:10:09;78129.09;;;-144.67;100.00
47522;BME280;32291;52.010;4.446;2023-10-09T05:11:25;78133.38;;;-144.67;100.00
47522;BME280;32291;52.010;4.446;2023-10-09T05:12:37;78126.97;;;-144.67;100.00
47522;BME280;32291;52.010;4.446;2023-10-09T05:13:47;78124.81;;;-144.67;100.00
47522;BME280;32291;52.010;4.446;2023-10-09T05:14:59;78118.41;;;-144.67;100.00
47522;BME280;32291;52.010;4.446;2023-10-09T05:16:15;78116.25;;;-144.67;100.00
47522;BME280;32291;52.010;4.446;2023-10-09T05:17:19;78116.25;;;-144.67;100.00
47522;BME280;32291;52.010;4.446;2023-10-09T05:18:24;78111.97;;;-144.67;100.00
47522;BME280;32291;52.010;4.446;2023-10-09T05:19:28;78111.97;;;-144.67;100.00
47522;BME280;32291;52.010;4.446;2023-10-09T05:21:08;78124.81;;;-144.67;100.00
47522;BME280;32291;52.010;4.446;2023-10-09T05:22:28;78124.81;;;-144.67;100.00
47522;BME280;32291;52.010;4.446;2023-10-09T05:23:40;78133.38;;;-144.67;100.00
47522;BME280;32291;52.010;4.446;2023-10-09T05:24:50;78129.09;;;-144.67;100.00
47522;BME280;32291;52.010;4.446;2023-10-09T05:25:55;78133.38;;;-144.67;100.00
47522;BME280;32291;52.010;4.446;2023-10-09T05:27:00;78126.97;;;-144.67;100.00
47522;BME280;32291;52.010;4.446;2023-10-09T05:28:22;78122.69;;;-144.67;100.00
47522;BME280;32291;52.010;4.446;2023-10-09T05:29:32;78122.69;;;-144.67;100.00
47522;BME280;32291;52.010;4.446;2023-10-09T05:30:33;78129.09;;;-144.67;100.00
47522;BME280;32291;52.010;4.446;2023-10-09T05:31:36;78126.97;;;-144.67;100.00
47522;BME280;32291;52.010;4.446;2023-10-09T05:32:57;78133.38;;;-144.67;100.00
47522;BME280;32291;52.010;4.446;2023-10-09T05:34:21;78126.97;;;-144.67;100.00
47522;BME280;32291;52.010;4.446;2023-10-09T05:35:25;78124.81;;;-144.67;100.00
47522;BME280;32291;52.010;4.446;2023-10-09T05:36:41;78133.38;;;-144.67;100.00
47522;BME280;32291;52.010;4.446;2023-10-09T05:37:49;78135.53;;;-144.67;100.00
47522;BME280;32291;52.010;4.446;2023-10-09T05:39:02;78124.81;;;-144.67;100.00
47522;BME280;32291;52.010;4.446;2023-10-09T05:40:23;78126.97;;;-144.67;100.00